Time;durP1;ratioP1;P1;durP2;ratioP2;P2;SDS_P1;SDS_P2;PMS_P1;PMS_P2;Temp;Humidity;BMP_temperature;BMP_pressure;BME280_temperature;BME280_humidity;BME280_pressure;Samples;Min_cycle;Max_cycle;Signal;HPM_P1;HPM_P2
2022/10/26 00:00:00;;;;;;;;;;;;;;;11.50;100.00;99256.50;1670802;86;20369;-79
2022/10/26 00:02:26;;;;;;;;;;;;;;;11.53;100.00;99261.64;1670843;85;20516;-85
2022/10/26 00:04:53;;;;;;;;;;;;;;;11.53;100.00;99264.27;1670874;86;21151;-86
2022/10/26 00:07:19;;;;;;;;;;;;;;;11.53;100.00;99271.30;1670819;85;20259;-81
2022/10/26 00:09:47;;;;;;;;;;;;;;;11.53;100.00;99273.50;1670836;86;20218;-84
2022/10/26 00:12:13;;;;;;;;;;;;;;;11.50;100.00;99267.03;1671095;85;20235;-84
2022/10/26 00:14:39;;;;;;;;;;;;;;;11.47;100.00;99267.16;1670741;86;20176;-84
2022/10/26 00:17:07;;;;;;;;;;;;;;;11.47;100.00;99273.75;1670794;85;21741;-85
2022/10/26 00:19:34;;;;;;;;;;;;;;;11.49;100.00;99271.89;1670621;86;20457;-85
2022/10/26 00:22:00;;;;;;;;;;;;;;;11.49;100.00;99275.84;1671024;86;20204;-84
2022/10/26 00:24:27;;;;;;;;;;;;;;;11.47;100.00;99276.38;1670781;86;20569;-85
2022/10/26 00:26:54;;;;;;;;;;;;;;;11.48;100.00;99277.23;1670795;85;20176;-84
2022/10/26 00:29:20;;;;;;;;;;;;;;;11.48;100.00;99275.47;1671084;86;21110;-83
2022/10/26 00:31:46;;;;;;;;;;;;;;;11.49;100.00;99275.00;1670755;85;20177;-84
2022/10/26 00:34:14;;;;;;;;;;;;;;;11.47;100.00;99275.06;1670815;86;20215;-84
2022/10/26 00:36:40;;;;;;;;;;;;;;;11.42;100.00;99280.14;1670815;86;20211;-83
2022/10/26 00:39:11;;;;;;;;;;;;;;;11.41;100.00;99281.90;1671079;86;20509;-84
2022/10/26 00:41:38;;;;;;;;;;;;;;;11.42;100.00;99280.14;1670799;85;21131;-81
2022/10/26 00:44:41;;;;;;;;;;;;;;;11.40;100.00;99281.95;1670633;86;20144;-85
2022/10/26 00:47:13;;;;;;;;;;;;;;;11.39;100.00;99286.38;1670836;86;20227;-81
2022/10/26 00:49:39;;;;;;;;;;;;;;;11.33;100.00;99282.23;1670541;85;20638;-82
2022/10/26 00:52:05;;;;;;;;;;;;;;;11.29;100.00;99283.27;1670786;86;20148;-85
2022/10/26 00:54:32;;;;;;;;;;;;;;;11.29;100.00;99287.22;1669766;86;21077;-85
2022/10/26 00:56:58;;;;;;;;;;;;;;;11.28;100.00;99288.59;1690773;84;20243;-84
2022/10/26 00:59:25;;;;;;;;;;;;;;;11.27;100.00;99290.38;1691246;84;20206;-84
2022/10/26 01:01:51;;;;;;;;;;;;;;;11.24;100.00;99283.91;1691410;84;20213;-84
2022/10/26 01:04:17;;;;;;;;;;;;;;;11.23;100.00;99286.61;1691166;84;20242;-81
2022/10/26 01:06:43;;;;;;;;;;;;;;;11.19;100.00;99278.45;1691343;84;21716;-80
2022/10/26 01:09:10;;;;;;;;;;;;;;;11.20;100.00;99281.49;1691031;84;20170;-83
2022/10/26 01:11:36;;;;;;;;;;;;;;;11.22;100.00;99286.23;1683778;84;20210;-82
2022/10/26 01:14:04;;;;;;;;;;;;;;;11.24;100.00;99287.02;1691382;84;20234;-84
2022/10/26 01:17:00;;;;;;;;;;;;;;;11.23;100.00;99290.56;1692566;83;20228;-77
2022/10/26 01:19:50;;;;;;;;;;;;;;;11.22;100.00;99291.50;1695670;83;21105;-77
2022/10/26 01:22:40;;;;;;;;;;;;;;;11.21;100.00;99292.41;1695179;83;21102;-78
2022/10/26 01:25:30;;;;;;;;;;;;;;;11.21;100.00;99292.41;1691405;84;20285;-83
2022/10/26 01:27:57;;;;;;;;;;;;;;;11.21;100.00;99289.77;1691077;85;20225;-83
2022/10/26 01:30:32;;;;;;;;;;;;;;;11.20;100.00;99288.08;1691347;84;20169;-84
2022/10/26 01:33:18;;;;;;;;;;;;;;;11.23;100.00;99293.19;1691107;85;21147;-84
2022/10/26 01:36:12;;;;;;;;;;;;;;;11.24;100.00;99285.70;1691177;84;20214;-84
2022/10/26 01:39:06;;;;;;;;;;;;;;;11.23;100.00;99287.48;1691104;84;20206;-85
2022/10/26 01:41:45;;;;;;;;;;;;;;;11.23;100.00;99283.97;1690942;84;20242;-85
2022/10/26 01:44:15;;;;;;;;;;;;;;;11.19;100.00;99282.41;1690706;84;20189;-84
2022/10/26 01:46:43;;;;;;;;;;;;;;;11.14;100.00;99283.43;1691227;84;21577;-85
2022/10/26 01:49:10;;;;;;;;;;;;;;;11.13;100.00;99277.78;1691156;84;20244;-85
2022/10/26 01:51:38;;;;;;;;;;;;;;;11.11;100.00;99283.58;1691204;84;20210;-83
2022/10/26 01:54:05;;;;;;;;;;;;;;;11.09;100.00;99281.44;1691224;84;20194;-84
2022/10/26 01:56:33;;;;;;;;;;;;;;;11.07;100.00;99287.23;1691215;83;20171;-84
2022/10/26 01:59:09;;;;;;;;;;;;;;;11.06;100.00;99297.39;1691214;84;21191;-85
2022/10/26 02:02:08;;;;;;;;;;;;;;;11.06;100.00;99293.88;1691467;84;20575;-81
2022/10/26 02:04:44;;;;;;;;;;;;;;;11.06;100.00;99292.13;1691144;83;20140;-83
2022/10/26 02:07:15;;;;;;;;;;;;;;;11.07;100.00;99296.45;1691235;83;20520;-85
2022/10/26 02:09:48;;;;;;;;;;;;;;;11.07;100.00;99301.72;1691181;83;20195;-83
2022/10/26 02:12:33;;;;;;;;;;;;;;;11.04;100.00;99297.89;1690158;83;21259;-85
2022/10/26 02:15:20;;;;;;;;;;;;;;;11.04;100.00;99297.04;1691084;84;20151;-83
2022/10/26 02:17:59;;;;;;;;;;;;;;;11.04;100.00;99300.52;1691251;83;20207;-85
2022/10/26 02:20:31;;;;;;;;;;;;;;;11.05;100.00;99298.30;1691506;84;20209;-84
2022/10/26 02:22:57;;;;;;;;;;;;;;;11.07;100.00;99310.94;1691416;84;20243;-83
2022/10/26 02:25:29;;;;;;;;;;;;;;;11.07;100.00;99306.14;1691285;84;21147;-84
2022/10/26 02:28:02;;;;;;;;;;;;;;;11.05;100.00;99304.88;1691237;84;20681;-85
2022/10/26 02:30:29;;;;;;;;;;;;;;;11.05;100.00;99303.56;1691281;83;20260;-85
2022/10/26 02:32:55;;;;;;;;;;;;;;;11.07;100.00;99304.35;1691420;84;20867;-84
2022/10/26 02:35:25;;;;;;;;;;;;;;;11.11;100.00;99307.28;1691273;84;20201;-84
2022/10/26 02:37:51;;;;;;;;;;;;;;;11.12;100.00;99302.39;1683884;84;21199;-84
2022/10/26 02:40:19;;;;;;;;;;;;;;;11.14;100.00;99309.76;1691344;84;20223;-84
2022/10/26 02:42:47;;;;;;;;;;;;;;;11.11;100.00;99308.59;1691576;84;20300;-84
2022/10/26 02:45:16;;;;;;;;;;;;;;;11.09;100.00;99302.51;1691250;84;20147;-83
2022/10/26 02:47:44;;;;;;;;;;;;;;;11.07;100.00;99306.98;1691213;84;20227;-85
2022/10/26 02:50:10;;;;;;;;;;;;;;;11.06;100.00;99306.61;1691289;84;21151;-84
2022/10/26 02:52:40;;;;;;;;;;;;;;;11.06;100.00;99310.55;1691379;84;20563;-84
2022/10/26 02:55:16;;;;;;;;;;;;;;;11.07;100.00;99306.98;1689989;84;20197;-82
2022/10/26 02:57:45;;;;;;;;;;;;;;;11.08;100.00;99306.55;1683738;85;20408;-84
2022/10/26 03:00:13;;;;;;;;;;;;;;;11.09;100.00;99306.45;1683864;85;20198;-84
2022/10/26 03:02:41;;;;;;;;;;;;;;;11.09;100.00;99311.72;1682434;85;21175;-81
2022/10/26 03:05:14;;;;;;;;;;;;;;;11.09;100.00;99314.36;1683655;85;20215;-82
2022/10/26 03:07:41;;;;;;;;;;;;;;;11.08;100.00;99317.92;1684066;85;20234;-84
2022/10/26 03:10:09;;;;;;;;;;;;;;;11.08;100.00;99325.83;1683753;85;20214;-85
2022/10/26 03:12:37;;;;;;;;;;;;;;;11.08;100.00;99325.83;1683824;85;20207;-84
2022/10/26 03:15:05;;;;;;;;;;;;;;;11.10;100.00;99324.45;1683766;85;21078;-85
2022/10/26 03:17:32;;;;;;;;;;;;;;;11.13;100.00;99327.81;1683778;85;20241;-85
2022/10/26 03:19:58;;;;;;;;;;;;;;;11.18;100.00;99324.13;1683971;85;20559;-85
2022/10/26 03:22:25;;;;;;;;;;;;;;;11.21;100.00;99321.38;1683855;85;20874;-85
2022/10/26 03:24:52;;;;;;;;;;;;;;;11.21;100.00;99321.38;1683996;85;20219;-84
2022/10/26 03:27:18;;;;;;;;;;;;;;;11.21;100.00;99322.69;1683853;85;20991;-82
2022/10/26 03:29:44;;;;;;;;;;;;;;;11.19;100.00;99316.64;1683834;85;20231;-84
2022/10/26 03:32:10;;;;;;;;;;;;;;;11.18;100.00;99320.17;1683872;85;20147;-84
2022/10/26 03:34:37;;;;;;;;;;;;;;;11.18;100.00;99321.49;1683637;85;20210;-84
2022/10/26 03:37:03;;;;;;;;;;;;;;;11.17;100.00;99319.80;1683800;85;20988;-86
2022/10/26 03:39:30;;;;;;;;;;;;;;;11.17;100.00;99318.02;1683838;85;21187;-85
2022/10/26 03:41:57;;;;;;;;;;;;;;;11.22;100.00;99323.09;1683663;85;20243;-85
2022/10/26 03:44:23;;;;;;;;;;;;;;;11.22;100.00;99319.15;1683770;85;20206;-85
2022/10/26 03:46:49;;;;;;;;;;;;;;;11.23;100.00;99318.21;1683966;85;20215;-84
2022/10/26 03:49:15;;;;;;;;;;;;;;;11.22;100.00;99328.37;1683670;85;20509;-84
2022/10/26 03:51:41;;;;;;;;;;;;;;;11.22;100.00;99321.78;1683951;85;21215;-86
2022/10/26 03:54:08;;;;;;;;;;;;;;;11.22;100.00;99322.63;1683770;85;20191;-86
2022/10/26 03:56:35;;;;;;;;;;;;;;;11.23;100.00;99320.84;1683836;84;20237;-85
2022/10/26 03:59:02;;;;;;;;;;;;;;;11.23;100.00;99326.11;1683894;85;20488;-82
2022/10/26 04:01:28;;;;;;;;;;;;;;;11.20;100.00;99319.21;1683825;85;20482;-83
2022/10/26 04:03:55;;;;;;;;;;;;;;;11.20;100.00;99322.31;1683965;85;21106;-80
2022/10/26 04:06:21;;;;;;;;;;;;;;;11.20;100.00;99323.63;1683664;85;20207;-85
2022/10/26 04:08:50;;;;;;;;;;;;;;;11.19;100.00;99317.95;1683700;83;20556;-86
2022/10/26 04:11:17;;;;;;;;;;;;;;;11.20;100.00;99317.05;1683628;85;21268;-85
2022/10/26 04:13:46;;;;;;;;;;;;;;;11.18;100.00;99316.23;1683803;85;20240;-82
2022/10/26 04:16:13;;;;;;;;;;;;;;;11.17;100.00;99314.53;1683810;85;21560;-85
2022/10/26 04:18:39;;;;;;;;;;;;;;;11.17;100.00;99317.16;1683735;84;20234;-83
2022/10/26 04:21:07;;;;;;;;;;;;;;;11.19;100.00;99317.95;1684109;85;20194;-86
2022/10/26 04:23:34;;;;;;;;;;;;;;;11.18;100.00;99321.49;1683815;85;20195;-85
2022/10/26 04:26:00;;;;;;;;;;;;;;;11.19;100.00;99315.32;1684058;85;20208;-84
2022/10/26 04:28:26;;;;;;;;;;;;;;;11.17;100.00;99310.58;1683723;85;21122;-83
2022/10/26 04:30:53;;;;;;;;;;;;;;;11.18;100.00;99318.86;1683647;85;20149;-86
2022/10/26 04:33:19;;;;;;;;;;;;;;;11.17;100.00;99310.58;1683817;85;20147;-85
2022/10/26 04:35:47;;;;;;;;;;;;;;;11.19;100.00;99310.05;1684021;85;20337;-85
2022/10/26 04:38:13;;;;;;;;;;;;;;;11.18;100.00;99306.57;1683920;85;20211;-85
2022/10/26 04:40:39;;;;;;;;;;;;;;;11.19;100.00;99308.73;1683624;84;21073;-85
2022/10/26 04:43:05;;;;;;;;;;;;;;;11.18;100.00;99308.33;1684027;85;21055;-86
2022/10/26 04:45:32;;;;;;;;;;;;;;;11.15;100.00;99307.54;1683745;85;20191;-86
2022/10/26 04:48:01;;;;;;;;;;;;;;;11.16;100.00;99312.34;1683671;85;20164;-85
2022/10/26 04:50:29;;;;;;;;;;;;;;;11.17;100.00;99315.84;1683332;85;20147;-86
2022/10/26 04:52:55;;;;;;;;;;;;;;;11.16;100.00;99311.02;1683885;85;21119;-85
2022/10/26 04:55:21;;;;;;;;;;;;;;;11.14;100.00;99313.71;1683490;84;20207;-85
2022/10/26 04:57:47;;;;;;;;;;;;;;;11.14;100.00;99312.39;1690515;84;20234;-86
2022/10/26 05:00:14;;;;;;;;;;;;;;;11.14;100.00;99312.86;1691279;84;20159;-87
2022/10/26 05:02:41;;;;;;;;;;;;;;;11.15;100.00;99310.17;1690845;84;20266;-86
2022/10/26 05:05:08;;;;;;;;;;;;;;;11.18;100.00;99314.47;1690900;84;21177;-86
2022/10/26 05:07:35;;;;;;;;;;;;;;;11.20;100.00;99313.09;1690959;84;20238;-85
2022/10/26 05:10:02;;;;;;;;;;;;;;;11.21;100.00;99320.05;1691041;84;20234;-86
2022/10/26 05:12:28;;;;;;;;;;;;;;;11.23;100.00;99317.77;1690690;84;20253;-85
2022/10/26 05:14:57;;;;;;;;;;;;;;;11.26;100.00;99319.41;1691036;83;20440;-84
2022/10/26 05:17:22;;;;;;;;;;;;;;;11.29;100.00;99319.29;1690859;84;21139;-86
2022/10/26 05:19:54;;;;;;;;;;;;;;;11.30;100.00;99323.18;1691216;84;20165;-86
2022/10/26 05:22:19;;;;;;;;;;;;;;;11.33;100.00;99328.33;1691113;84;20214;-87
2022/10/26 05:24:47;;;;;;;;;;;;;;;11.33;100.00;99324.38;1691040;84;21120;-84
2022/10/26 05:27:13;;;;;;;;;;;;;;;11.33;100.00;99332.28;1691564;84;20195;-86
2022/10/26 05:29:40;;;;;;;;;;;;;;;11.34;100.00;99329.17;1690996;84;21105;-85
2022/10/26 05:32:06;;;;;;;;;;;;;;;11.36;100.00;99335.23;1691180;84;20202;-85
2022/10/26 05:34:32;;;;;;;;;;;;;;;11.38;100.00;99336.48;1691256;84;21079;-86
2022/10/26 05:36:59;;;;;;;;;;;;;;;11.41;100.00;99339.85;1691506;84;20222;-86
2022/10/26 05:39:25;;;;;;;;;;;;;;;11.44;100.00;99342.37;1691401;84;20230;-86
2022/10/26 05:41:52;;;;;;;;;;;;;;;11.46;100.00;99337.88;1691258;84;21072;-81
2022/10/26 05:44:18;;;;;;;;;;;;;;;11.47;100.00;99334.81;1691445;84;20169;-84
2022/10/26 05:46:46;;;;;;;;;;;;;;;11.47;100.00;99338.77;1691266;84;20209;-85
2022/10/26 05:49:12;;;;;;;;;;;;;;;11.49;100.00;99336.45;1691532;84;20433;-86
2022/10/26 05:51:38;;;;;;;;;;;;;;;11.51;100.00;99335.91;1691547;83;20235;-85
2022/10/26 05:54:05;;;;;;;;;;;;;;;11.53;100.00;99337.17;1691142;84;21178;-86
2022/10/26 05:56:38;;;;;;;;;;;;;;;11.53;100.00;99331.91;1688897;84;20199;-85
2022/10/26 05:59:13;;;;;;;;;;;;;;;11.57;100.00;99344.05;1683829;85;20215;-85
2022/10/26 06:02:06;;;;;;;;;;;;;;;11.61;100.00;99343.45;1685760;85;20212;-84
2022/10/26 06:04:37;;;;;;;;;;;;;;;11.63;100.00;99344.24;1687033;83;20168;-81
2022/10/26 06:07:10;;;;;;;;;;;;;;;11.64;100.00;99351.23;1687987;84;21168;-77
2022/10/26 06:09:38;;;;;;;;;;;;;;;11.63;100.00;99349.52;1684343;85;20210;-86
2022/10/26 06:12:51;;;;;;;;;;;;;;;11.62;100.00;99343.86;1684248;85;20219;-85
2022/10/26 06:15:19;;;;;;;;;;;;;;;11.59;100.00;99341.35;1683925;85;20242;-86
2022/10/26 06:18:06;;;;;;;;;;;;;;;11.60;100.00;99350.95;1683815;85;20214;-87
2022/10/26 06:20:51;;;;;;;;;;;;;;;11.61;100.00;99344.77;1683874;83;21548;-84
2022/10/26 06:23:37;;;;;;;;;;;;;;;11.61;100.00;99344.77;1682858;85;20218;-85
2022/10/26 06:26:35;;;;;;;;;;;;;;;11.62;100.00;99345.18;1683976;85;20167;-85
2022/10/26 06:29:20;;;;;;;;;;;;;;;11.65;100.00;99350.30;1683933;85;20270;-86
2022/10/26 06:31:47;;;;;;;;;;;;;;;11.71;100.00;99355.33;1683776;85;20216;-85
2022/10/26 06:34:16;;;;;;;;;;;;;;;11.79;100.00;99350.59;1684047;85;21114;-85
2022/10/26 06:36:42;;;;;;;;;;;;;;;11.84;100.00;99351.72;1683796;84;20760;-86
2022/10/26 06:39:10;;;;;;;;;;;;;;;11.92;100.00;99356.69;1683790;85;20450;-84
2022/10/26 06:41:37;;;;;;;;;;;;;;;11.95;100.00;99358.72;1683909;85;20144;-81
2022/10/26 06:44:04;;;;;;;;;;;;;;;12.00;100.00;99365.12;1684070;85;20206;-85
2022/10/26 06:46:43;;;;;;;;;;;;;;;12.04;100.00;99365.41;1683914;85;22091;-85
2022/10/26 06:49:24;;;;;;;;;;;;;;;12.04;100.00;99362.77;1683972;85;20168;-83
2022/10/26 06:51:59;;;;;;;;;;;;;;;12.07;100.00;99365.28;1683805;85;20198;-84
2022/10/26 06:54:32;;;;;;;;;;;;;;;12.09;100.00;99372.66;1683941;84;20155;-85
2022/10/26 06:56:58;;;;;;;;;;;;;;;12.09;100.00;99371.34;1683835;84;20257;-86
2022/10/26 06:59:31;;;;;;;;;;;;;;;12.12;100.00;99368.57;1685792;85;22210;-83
2022/10/26 07:01:58;;;;;;;;;;;;;;;12.15;100.00;99373.69;1685478;84;20176;-84
2022/10/26 07:04:24;;;;;;;;;;;;;;;12.18;100.00;99382.80;1685485;85;20174;-86
2022/10/26 07:06:51;;;;;;;;;;;;;;;12.18;100.00;99386.75;1685835;85;20188;-85
2022/10/26 07:09:17;;;;;;;;;;;;;;;12.22;100.00;99382.19;1685607;84;20218;-86
2022/10/26 07:11:44;;;;;;;;;;;;;;;12.23;100.00;99379.48;1685815;85;21135;-84
2022/10/26 07:14:11;;;;;;;;;;;;;;;12.30;100.00;99385.36;1685686;85;20265;-81
2022/10/26 07:16:39;;;;;;;;;;;;;;;12.31;100.00;99390.19;1685752;84;20175;-83
2022/10/26 07:19:05;;;;;;;;;;;;;;;12.31;100.00;99388.88;1685660;85;20266;-84
2022/10/26 07:21:32;;;;;;;;;;;;;;;12.30;100.00;99390.63;1685884;85;20202;-85
2022/10/26 07:23:58;;;;;;;;;;;;;;;12.33;100.00;99388.34;1685972;85;21145;-86
2022/10/26 07:26:24;;;;;;;;;;;;;;;12.35;100.00;99388.64;1685762;84;20497;-84
2022/10/26 07:28:51;;;;;;;;;;;;;;;12.37;100.00;99387.27;1685960;85;20203;-86
2022/10/26 07:31:17;;;;;;;;;;;;;;;12.43;100.00;99394.92;1685645;84;20229;-86
2022/10/26 07:33:44;;;;;;;;;;;;;;;12.49;100.00;99397.73;1685851;84;20225;-84
2022/10/26 07:36:11;;;;;;;;;;;;;;;12.50;100.00;99397.67;1685725;85;21151;-86
2022/10/26 07:38:38;;;;;;;;;;;;;;;12.56;100.00;99405.33;1686059;85;20157;-88
2022/10/26 07:41:05;;;;;;;;;;;;;;;12.60;100.00;99403.41;1685869;85;20230;-86
2022/10/26 07:43:31;;;;;;;;;;;;;;;12.64;100.00;99401.88;1685821;85;20221;-86
2022/10/26 07:45:58;;;;;;;;;;;;;;;12.68;100.00;99403.07;1685883;85;20183;-86
2022/10/26 07:48:25;;;;;;;;;;;;;;;12.71;100.00;99402.91;1685681;85;21815;-83
2022/10/26 07:50:51;;;;;;;;;;;;;;;12.73;100.00;99398.44;1685570;85;21061;-85
2022/10/26 07:53:17;;;;;;;;;;;;;;;12.75;100.00;99403.18;1685828;85;20219;-87
2022/10/26 07:55:54;;;;;;;;;;;;;;;12.77;100.00;99400.84;1686231;85;20198;-85
2022/10/26 07:58:22;;;;;;;;;;;;;;;12.78;100.00;99410.97;1683944;84;20182;-84
2022/10/26 08:00:51;;;;;;;;;;;;;;;12.76;100.00;99408.39;1683820;85;21323;-85
2022/10/26 08:03:17;;;;;;;;;;;;;;;12.78;100.00;99405.69;1683711;85;20214;-85
2022/10/26 08:05:50;;;;;;;;;;;;;;;12.78;100.00;99409.64;1684053;85;20219;-84
2022/10/26 08:08:17;;;;;;;;;;;;;;;12.79;100.00;99416.18;1683688;85;20207;-86
2022/10/26 08:10:44;;;;;;;;;;;;;;;12.78;100.00;99418.89;1683766;85;20231;-87
2022/10/26 08:13:11;;;;;;;;;;;;;;;12.77;100.00;99416.69;1683815;85;21558;-85
2022/10/26 08:15:38;;;;;;;;;;;;;;;12.76;100.00;99416.75;1683984;85;20204;-83
2022/10/26 08:18:05;;;;;;;;;;;;;;;12.77;100.00;99424.61;1683635;85;20230;-85
2022/10/26 08:20:32;;;;;;;;;;;;;;;12.77;100.00;99421.13;1683571;85;20156;-84
2022/10/26 08:23:00;;;;;;;;;;;;;;;12.78;100.00;99425.48;1683710;85;20219;-85
2022/10/26 08:25:26;;;;;;;;;;;;;;;12.78;100.00;99431.61;1683784;85;21151;-86
2022/10/26 08:27:53;;;;;;;;;;;;;;;12.80;100.00;99430.23;1683848;85;20211;-86
2022/10/26 08:30:19;;;;;;;;;;;;;;;12.82;100.00;99429.22;1683734;85;20238;-85
2022/10/26 08:32:47;;;;;;;;;;;;;;;12.82;100.00;99432.33;1683825;83;20214;-84
2022/10/26 08:35:13;;;;;;;;;;;;;;;12.82;100.00;99430.53;1683879;85;20218;-86
2022/10/26 08:37:40;;;;;;;;;;;;;;;12.82;100.00;99431.86;1683858;85;21186;-84
2022/10/26 08:40:10;;;;;;;;;;;;;;;12.82;100.00;99432.33;1683669;85;20188;-88
2022/10/26 08:42:39;;;;;;;;;;;;;;;12.88;100.00;99432.50;1662418;85;20227;-85
2022/10/26 08:45:18;;;;;;;;;;;;;;;12.97;100.00;99430.78;1683404;85;20551;-84
2022/10/26 08:47:46;;;;;;;;;;;;;;;13.08;100.00;99429.83;1683572;85;20147;-86
2022/10/26 08:50:29;;;;;;;;;;;;;;;13.16;100.00;99439.58;1683408;85;21205;-82
2022/10/26 08:53:19;;;;;;;;;;;;;;;13.22;100.00;99443.70;1683362;85;20231;-85
2022/10/26 08:55:48;;;;;;;;;;;;;;;13.28;100.00;99435.50;1683387;85;20234;-87
2022/10/26 08:58:16;;;;;;;;;;;;;;;13.36;100.00;99441.32;1661801;85;20218;-84
2022/10/26 09:00:44;;;;;;;;;;;;;;;13.41;100.00;99444.20;1683673;85;20472;-86
2022/10/26 09:03:14;;;;;;;;;;;;;;;13.44;100.00;99441.41;1683682;85;21923;-83
2022/10/26 09:05:56;;;;;;;;;;;;;;;13.46;100.00;99441.72;1683471;83;20235;-86
2022/10/26 09:08:34;;;;;;;;;;;;;;;13.49;100.00;99448.66;1659447;85;20187;-86
2022/10/26 09:11:16;;;;;;;;;;;;;;;13.47;100.00;99453.17;1683468;85;20219;-85
2022/10/26 09:13:55;;;;;;;;;;;;;;;13.45;100.00;99453.68;1682727;85;20438;-86
2022/10/26 09:16:31;;;;;;;;;;;;;;;13.41;100.00;99456.09;1683561;85;21365;-83
2022/10/26 09:19:18;;;;;;;;;;;;;;;13.36;100.00;99462.47;1683597;85;20456;-86
2022/10/26 09:22:06;;;;;;;;;;;;;;;13.31;100.00;99469.69;1683325;85;20179;-84
2022/10/26 09:24:34;;;;;;;;;;;;;;;13.26;100.00;99457.16;1683747;85;20152;-85
2022/10/26 09:27:14;;;;;;;;;;;;;;;13.28;100.00;99474.26;1683528;85;20571;-87
2022/10/26 09:29:41;;;;;;;;;;;;;;;13.30;100.00;99462.70;1683723;85;21082;-82
2022/10/26 09:32:26;;;;;;;;;;;;;;;13.37;100.00;99468.13;1683145;85;20143;-86
2022/10/26 09:34:58;;;;;;;;;;;;;;;13.44;100.00;99469.16;1683495;85;20337;-80
2022/10/26 09:37:27;;;;;;;;;;;;;;;13.54;100.00;99466.47;1682485;85;20623;-86
2022/10/26 09:40:12;;;;;;;;;;;;;;;13.59;100.00;99464.47;1683718;83;20227;-86
2022/10/26 09:42:41;;;;;;;;;;;;;;;13.62;99.65;99461.68;1661843;85;21251;-86
2022/10/26 09:45:23;;;;;;;;;;;;;;;13.61;99.56;99466.56;1683914;85;20206;-85
2022/10/26 09:47:53;;;;;;;;;;;;;;;13.60;99.44;99462.23;1683737;85;20168;-86
2022/10/26 09:50:26;;;;;;;;;;;;;;;13.59;99.25;99458.33;1683835;85;20345;-87
2022/10/26 09:52:52;;;;;;;;;;;;;;;13.58;99.19;99457.92;1683781;85;20147;-86
2022/10/26 09:55:20;;;;;;;;;;;;;;;13.56;99.44;99463.28;1683901;85;21119;-85
2022/10/26 09:57:49;;;;;;;;;;;;;;;13.55;99.37;99462.91;1683712;84;20202;-88
2022/10/26 10:00:16;;;;;;;;;;;;;;;13.57;99.59;99465.02;1683740;85;20227;-84
2022/10/26 10:02:44;;;;;;;;;;;;;;;13.62;99.90;99460.36;1683995;85;20195;-85
2022/10/26 10:05:26;;;;;;;;;;;;;;;13.74;100.00;99459.75;1683665;85;20196;-84
2022/10/26 10:08:12;;;;;;;;;;;;;;;13.87;100.00;99464.44;1684065;85;21733;-84
2022/10/26 10:10:49;;;;;;;;;;;;;;;13.96;99.59;99466.64;1683943;85;20206;-84
2022/10/26 10:13:16;;;;;;;;;;;;;;;13.97;98.13;99466.17;1679301;85;20258;-85
2022/10/26 10:15:52;;;;;;;;;;;;;;;13.97;97.03;99460.44;1683874;85;20177;-84
2022/10/26 10:18:22;;;;;;;;;;;;;;;13.97;96.19;99455.14;1683834;85;20517;-82
2022/10/26 10:20:54;;;;;;;;;;;;;;;14.01;96.13;99461.98;1683710;85;21221;-84
2022/10/26 10:23:26;;;;;;;;;;;;;;;14.06;95.68;99463.92;1683769;85;20228;-85
2022/10/26 10:26:09;;;;;;;;;;;;;;;14.15;95.63;99463.93;1684094;85;20237;-83
2022/10/26 10:28:36;;;;;;;;;;;;;;;14.28;95.66;99458.88;1683679;85;20210;-86
2022/10/26 10:31:04;;;;;;;;;;;;;;;14.42;93.58;99459.50;1683637;85;20195;-86
2022/10/26 10:33:34;;;;;;;;;;;;;;;14.52;93.14;99460.73;1683823;85;21163;-82
2022/10/26 10:36:00;;;;;;;;;;;;;;;14.61;91.47;99457.66;1683738;85;20454;-86
2022/10/26 10:38:27;;;;;;;;;;;;;;;14.68;91.59;99463.01;1683898;85;20211;-84
2022/10/26 10:40:56;;;;;;;;;;;;;;;14.72;90.70;99456.23;1683872;85;20211;-84
2022/10/26 10:43:22;;;;;;;;;;;;;;;14.71;90.48;99463.33;1683903;85;20527;-87
2022/10/26 10:45:50;;;;;;;;;;;;;;;14.70;90.55;99461.61;1683839;85;21101;-86
2022/10/26 10:48:21;;;;;;;;;;;;;;;14.73;90.61;99471.20;1683936;85;20209;-86
2022/10/26 10:50:57;;;;;;;;;;;;;;;14.72;89.83;99468.99;1683788;85;20213;-86
2022/10/26 10:53:39;;;;;;;;;;;;;;;14.64;88.10;99469.41;1682522;85;20924;-82
2022/10/26 10:56:27;;;;;;;;;;;;;;;14.50;87.25;99475.37;1683373;85;20207;-86
2022/10/26 10:59:14;;;;;;;;;;;;;;;14.39;87.69;99472.44;1688130;84;21511;-84
2022/10/26 11:01:49;;;;;;;;;;;;;;;14.31;88.03;99471.48;1689433;84;20135;-78
2022/10/26 11:04:34;;;;;;;;;;;;;;;14.26;87.13;99472.67;1687857;85;20223;-84
2022/10/26 11:07:02;;;;;;;;;;;;;;;14.24;87.70;99475.84;1647740;86;20162;-85
2022/10/26 11:09:30;;;;;;;;;;;;;;;14.28;87.34;99469.47;1686253;84;20480;-84
2022/10/26 11:11:58;;;;;;;;;;;;;;;14.28;87.49;99477.41;1685791;85;21898;-84
2022/10/26 11:14:31;;;;;;;;;;;;;;;14.26;86.89;99469.55;1685694;85;20171;-83
2022/10/26 11:17:19;;;;;;;;;;;;;;;14.25;87.35;99470.47;1685764;85;20206;-86
2022/10/26 11:20:04;;;;;;;;;;;;;;;14.20;86.91;99475.14;1685833;84;20242;-85
2022/10/26 11:22:42;;;;;;;;;;;;;;;14.21;87.21;99469.41;1685814;85;20234;-81
2022/10/26 11:25:14;;;;;;;;;;;;;;;14.16;87.15;99472.75;1685857;85;21504;-86
2022/10/26 11:27:50;;;;;;;;;;;;;;;14.08;87.27;99471.80;1684416;84;20211;-82
2022/10/26 11:30:21;;;;;;;;;;;;;;;14.04;88.06;99465.80;1685951;84;20226;-82
2022/10/26 11:32:59;;;;;;;;;;;;;;;14.07;88.36;99468.74;1685773;85;20270;-84
2022/10/26 11:35:31;;;;;;;;;;;;;;;14.14;88.72;99466.20;1686104;85;20243;-85
2022/10/26 11:38:03;;;;;;;;;;;;;;;14.25;88.83;99465.17;1679725;85;21174;-85
2022/10/26 11:40:52;;;;;;;;;;;;;;;14.40;88.38;99462.22;1685921;85;20208;-81
2022/10/26 11:43:29;;;;;;;;;;;;;;;14.56;88.51;99468.92;1685735;84;20160;-81
2022/10/26 11:46:04;;;;;;;;;;;;;;;14.71;87.80;99469.95;1686078;84;20234;-84
2022/10/26 11:48:49;;;;;;;;;;;;;;;14.84;87.28;99470.14;1685899;85;20130;-85
2022/10/26 11:51:20;;;;;;;;;;;;;;;14.96;86.74;99467.30;1685792;85;21348;-85
2022/10/26 11:53:46;;;;;;;;;;;;;;;15.03;85.86;99466.06;1685543;85;20426;-82
2022/10/26 11:56:29;;;;;;;;;;;;;;;15.09;85.49;99471.01;1685628;85;20211;-85
2022/10/26 11:58:58;;;;;;;;;;;;;;;15.16;84.21;99464.91;1684948;84;21451;-84
2022/10/26 12:01:24;;;;;;;;;;;;;;;15.26;83.95;99470.56;1684155;85;20218;-86
2022/10/26 12:03:50;;;;;;;;;;;;;;;15.42;83.58;99468.80;1683827;84;21121;-86
2022/10/26 12:06:19;;;;;;;;;;;;;;;15.54;82.21;99470.75;1683754;85;20215;-84
2022/10/26 12:08:48;;;;;;;;;;;;;;;15.53;80.83;99469.06;1683772;85;20206;-84
2022/10/26 12:11:37;;;;;;;;;;;;;;;15.42;80.24;99470.12;1683616;85;20132;-84
2022/10/26 12:14:16;;;;;;;;;;;;;;;15.31;80.56;99473.82;1683795;85;20140;-87
2022/10/26 12:16:52;;;;;;;;;;;;;;;15.17;80.25;99475.43;1684006;85;21078;-83
2022/10/26 12:19:41;;;;;;;;;;;;;;;15.08;80.60;99473.30;1683646;85;20215;-85
2022/10/26 12:22:13;;;;;;;;;;;;;;;14.98;81.12;99477.38;1683727;85;20147;-84
2022/10/26 12:24:44;;;;;;;;;;;;;;;14.92;81.68;99487.81;1683845;85;20639;-86
2022/10/26 12:27:32;;;;;;;;;;;;;;;14.83;81.52;99485.19;1683524;85;20306;-84
2022/10/26 12:30:26;;;;;;;;;;;;;;;14.72;81.34;99486.20;1652064;85;21835;-85
2022/10/26 12:32:56;;;;;;;;;;;;;;;14.61;81.71;99487.26;1683778;85;20210;-84
2022/10/26 12:35:43;;;;;;;;;;;;;;;14.52;82.11;99491.66;1683405;85;20203;-81
2022/10/26 12:38:28;;;;;;;;;;;;;;;14.43;82.74;99491.19;1683855;85;20202;-85
2022/10/26 12:41:20;;;;;;;;;;;;;;;14.39;83.38;99485.67;1680825;85;20259;-86
2022/10/26 12:43:49;;;;;;;;;;;;;;;14.34;83.77;99490.34;1652863;86;20230;-86
2022/10/26 12:46:19;;;;;;;;;;;;;;;14.34;84.22;99484.17;1652715;86;20599;-84
2022/10/26 12:48:48;;;;;;;;;;;;;;;14.33;84.22;99492.59;1623437;88;20207;-86
2022/10/26 12:51:24;;;;;;;;;;;;;;;14.35;84.84;99499.98;1652745;86;20657;-85
2022/10/26 12:54:06;;;;;;;;;;;;;;;14.35;85.56;99499.13;1653008;86;20435;-81
2022/10/26 12:56:36;;;;;;;;;;;;;;;14.32;85.46;99500.13;1652817;86;21921;-86
2022/10/26 12:59:11;;;;;;;;;;;;;;;14.28;86.02;99501.23;1652296;86;20156;-84